sensor_id;sensor_type;location;lat;lon;timestamp;pressure;altitude;pressure_sealevel;temperature;humidity
33506;BME280;19843;51.040;13.782;2023-05-03T00:01:17;101372.94;;;10.89;66.25
33506;BME280;19843;51.040;13.782;2023-05-03T00:03:44;101369.03;;;10.98;66.85
33506;BME280;19843;51.040;13.782;2023-05-03T00:06:14;101374.22;;;10.83;65.98
33506;BME280;19843;51.040;13.782;2023-05-03T00:08:42;101372.09;;;10.88;67.18
33506;BME280;19843;51.040;13.782;2023-05-03T00:11:09;101374.44;;;10.72;67.25
33506;BME280;19843;51.040;13.782;2023-05-03T00:13:38;101376.69;;;10.62;68.28
33506;BME280;19843;51.040;13.782;2023-05-03T00:16:06;101366.91;;;10.73;67.84
33506;BME280;19843;51.040;13.782;2023-05-03T00:18:33;101375.09;;;10.69;68.00
33506;BME280;19843;51.040;13.782;2023-05-03T00:21:00;101369.19;;;10.71;68.61
33506;BME280;19843;51.040;13.782;2023-05-03T00:23:28;101378.84;;;10.87;68.71
33506;BME280;19843;51.040;13.782;2023-05-03T00:25:57;101366.34;;;10.40;69.33
33506;BME280;19843;51.040;13.782;2023-05-03T00:28:25;101373.69;;;10.58;70.56
33506;BME280;19843;51.040;13.782;2023-05-03T00:30:53;101381.16;;;10.49;70.82
33506;BME280;19843;51.040;13.782;2023-05-03T00:33:21;101368.94;;;10.36;71.79
33506;BME280;19843;51.040;13.782;2023-05-03T00:35:48;101373.63;;;10.27;72.61
33506;BME280;19843;51.040;13.782;2023-05-03T00:38:16;101373.19;;;10.20;72.56
33506;BME280;19843;51.040;13.782;2023-05-03T00:40:43;101374.97;;;10.52;72.17
33506;BME280;19843;51.040;13.782;2023-05-03T00:43:11;101367.09;;;10.32;73.26
33506;BME280;19843;51.040;13.782;2023-05-03T00:45:39;101368.19;;;10.44;72.43
33506;BME280;19843;51.040;13.782;2023-05-03T00:48:08;101369.69;;;10.14;72.69
33506;BME280;19843;51.040;13.782;2023-05-03T00:50:36;101367.97;;;10.05;72.19
33506;BME280;19843;51.040;13.782;2023-05-03T00:53:03;101363.19;;;10.05;72.37
33506;BME280;19843;51.040;13.782;2023-05-03T00:55:32;101367.81;;;10.23;71.59
33506;BME280;19843;51.040;13.782;2023-05-03T00:57:59;101363.16;;;10.33;70.63
33506;BME280;19843;51.040;13.782;2023-05-03T01:00:26;101365.19;;;9.91;71.62
33506;BME280;19843;51.040;13.782;2023-05-03T01:02:54;101366.31;;;10.04;72.86
33506;BME280;19843;51.040;13.782;2023-05-03T01:05:24;101368.00;;;9.77;72.83
33506;BME280;19843;51.040;13.782;2023-05-03T01:07:58;101369.75;;;9.87;72.61
33506;BME280;19843;51.040;13.782;2023-05-03T01:10:37;101369.56;;;9.83;73.52
33506;BME280;19843;51.040;13.782;2023-05-03T01:13:13;101367.16;;;10.04;72.88
33506;BME280;19843;51.040;13.782;2023-05-03T01:15:53;101358.53;;;10.14;72.67
33506;BME280;19843;51.040;13.782;2023-05-03T01:18:29;101365.31;;;9.86;73.11
33506;BME280;19843;51.040;13.782;2023-05-03T01:20:59;101370.38;;;9.97;73.58
33506;BME280;19843;51.040;13.782;2023-05-03T01:23:28;101364.34;;;10.04;72.89
33506;BME280;19843;51.040;13.782;2023-05-03T01:26:13;101367.16;;;9.90;73.31
33506;BME280;19843;51.040;13.782;2023-05-03T01:28:40;101362.97;;;9.65;73.60
33506;BME280;19843;51.040;13.782;2023-05-03T01:31:08;101367.53;;;9.61;72.96
33506;BME280;19843;51.040;13.782;2023-05-03T01:33:42;101362.06;;;9.56;73.39
33506;BME280;19843;51.040;13.782;2023-05-03T01:36:15;101363.81;;;9.66;72.64
33506;BME280;19843;51.040;13.782;2023-05-03T01:38:47;101360.31;;;9.46;71.05
33506;BME280;19843;51.040;13.782;2023-05-03T01:41:17;101367.78;;;9.87;70.05
33506;BME280;19843;51.040;13.782;2023-05-03T01:43:46;101375.78;;;9.53;69.91
33506;BME280;19843;51.040;13.782;2023-05-03T01:46:14;101366.97;;;9.73;68.40
33506;BME280;19843;51.040;13.782;2023-05-03T01:48:42;101377.25;;;9.36;68.53
33506;BME280;19843;51.040;13.782;2023-05-03T01:51:09;101376.09;;;9.65;67.99
33506;BME280;19843;51.040;13.782;2023-05-03T01:53:37;101372.78;;;9.49;66.81
33506;BME280;19843;51.040;13.782;2023-05-03T01:56:05;101374.22;;;9.33;67.30
33506;BME280;19843;51.040;13.782;2023-05-03T01:58:34;101372.03;;;9.16;66.78
33506;BME280;19843;51.040;13.782;2023-05-03T02:01:03;101371.44;;;9.19;67.05
33506;BME280;19843;51.040;13.782;2023-05-03T02:03:30;101377.63;;;9.02;66.22
33506;BME280;19843;51.040;13.782;2023-05-03T02:05:58;101369.38;;;9.24;65.94
33506;BME280;19843;51.040;13.782;2023-05-03T02:08:25;101368.66;;;9.19;65.30
33506;BME280;19843;51.040;13.782;2023-05-03T02:10:53;101374.66;;;9.26;64.84
33506;BME280;19843;51.040;13.782;2023-05-03T02:13:20;101381.78;;;8.86;64.86
33506;BME280;19843;51.040;13.782;2023-05-03T02:15:49;101375.75;;;8.65;63.74
33506;BME280;19843;51.040;13.782;2023-05-03T02:18:16;101377.03;;;8.86;64.57
33506;BME280;19843;51.040;13.782;2023-05-03T02:20:45;101380.19;;;8.66;63.38
33506;BME280;19843;51.040;13.782;2023-05-03T02:23:13;101371.63;;;8.62;63.97
33506;BME280;19843;51.040;13.782;2023-05-03T02:25:40;101371.09;;;8.60;63.84
33506;BME280;19843;51.040;13.782;2023-05-03T02:28:08;101373.16;;;8.68;63.62
33506;BME280;19843;51.040;13.782;2023-05-03T02:30:35;101368.22;;;8.98;63.06
33506;BME280;19843;51.040;13.782;2023-05-03T02:33:04;101365.03;;;9.18;62.47
33506;BME280;19843;51.040;13.782;2023-05-03T02:35:31;101376.28;;;9.27;61.21
33506;BME280;19843;51.040;13.782;2023-05-03T02:37:59;101379.56;;;9.15;61.51
33506;BME280;19843;51.040;13.782;2023-05-03T02:40:26;101369.81;;;9.32;61.00
33506;BME280;19843;51.040;13.782;2023-05-03T02:42:54;101383.31;;;9.24;60.75
33506;BME280;19843;51.040;13.782;2023-05-03T02:45:21;101372.78;;;9.21;61.07
33506;BME280;19843;51.040;13.782;2023-05-03T02:47:49;101381.16;;;8.75;61.05
33506;BME280;19843;51.040;13.782;2023-05-03T02:50:18;101385.31;;;8.59;62.02
33506;BME280;19843;51.040;13.782;2023-05-03T02:52:45;101389.72;;;8.46;62.04
33506;BME280;19843;51.040;13.782;2023-05-03T02:55:13;101392.34;;;8.37;62.50
33506;BME280;19843;51.040;13.782;2023-05-03T02:57:40;101386.19;;;8.35;62.81
33506;BME280;19843;51.040;13.782;2023-05-03T03:00:10;101385.13;;;8.88;62.82
33506;BME280;19843;51.040;13.782;2023-05-03T03:02:40;101387.03;;;8.87;62.36
33506;BME280;19843;51.040;13.782;2023-05-03T03:05:08;101395.22;;;8.84;61.90
33506;BME280;19843;51.040;13.782;2023-05-03T03:07:37;101403.94;;;8.77;62.48
33506;BME280;19843;51.040;13.782;2023-05-03T03:10:05;101400.00;;;8.45;63.06
33506;BME280;19843;51.040;13.782;2023-05-03T03:12:34;101402.16;;;8.67;62.69
33506;BME280;19843;51.040;13.782;2023-05-03T03:15:02;101396.50;;;8.72;62.06
33506;BME280;19843;51.040;13.782;2023-05-03T03:17:30;101416.91;;;9.01;63.13
33506;BME280;19843;51.040;13.782;2023-05-03T03:19:59;101410.53;;;9.14;62.72
33506;BME280;19843;51.040;13.782;2023-05-03T03:22:31;101417.16;;;8.53;62.66
33506;BME280;19843;51.040;13.782;2023-05-03T03:25:00;101418.31;;;8.84;63.37
33506;BME280;19843;51.040;13.782;2023-05-03T03:27:27;101417.72;;;8.68;65.84
33506;BME280;19843;51.040;13.782;2023-05-03T03:29:54;101420.41;;;9.06;66.41
33506;BME280;19843;51.040;13.782;2023-05-03T03:32:22;101419.19;;;8.98;67.69
33506;BME280;19843;51.040;13.782;2023-05-03T03:34:49;101418.88;;;8.49;69.64
33506;BME280;19843;51.040;13.782;2023-05-03T03:37:18;101416.09;;;8.49;69.53
33506;BME280;19843;51.040;13.782;2023-05-03T03:39:47;101420.34;;;8.79;69.54
33506;BME280;19843;51.040;13.782;2023-05-03T03:42:16;101424.06;;;8.55;69.60
33506;BME280;19843;51.040;13.782;2023-05-03T03:44:45;101423.25;;;8.87;69.03
33506;BME280;19843;51.040;13.782;2023-05-03T03:47:13;101431.03;;;8.71;69.37
33506;BME280;19843;51.040;13.782;2023-05-03T03:49:40;101419.56;;;8.59;69.96
33506;BME280;19843;51.040;13.782;2023-05-03T03:52:07;101430.78;;;8.87;69.94
33506;BME280;19843;51.040;13.782;2023-05-03T03:54:35;101430.72;;;8.35;69.85
33506;BME280;19843;51.040;13.782;2023-05-03T03:57:02;101430.53;;;8.69;70.17
33506;BME280;19843;51.040;13.782;2023-05-03T03:59:31;101434.28;;;8.79;69.19
33506;BME280;19843;51.040;13.782;2023-05-03T04:01:58;101448.19;;;8.79;68.93
33506;BME280;19843;51.040;13.782;2023-05-03T04:04:26;101441.53;;;8.42;67.27
33506;BME280;19843;51.040;13.782;2023-05-03T04:06:54;101450.47;;;8.58;69.24
33506;BME280;19843;51.040;13.782;2023-05-03T04:09:21;101455.16;;;8.95;68.64
33506;BME280;19843;51.040;13.782;2023-05-03T04:11:48;101450.75;;;8.75;67.17
33506;BME280;19843;51.040;13.782;2023-05-03T04:14:16;101453.31;;;8.53;65.90
33506;BME280;19843;51.040;13.782;2023-05-03T04:16:45;101454.38;;;8.57;65.43
33506;BME280;19843;51.040;13.782;2023-05-03T04:19:12;101463.50;;;8.95;66.26
33506;BME280;19843;51.040;13.782;2023-05-03T04:21:40;101467.06;;;8.82;67.99
33506;BME280;19843;51.040;13.782;2023-05-03T04:24:07;101465.25;;;8.91;68.38
33506;BME280;19843;51.040;13.782;2023-05-03T04:26:35;101475.19;;;8.78;67.52
33506;BME280;19843;51.040;13.782;2023-05-03T04:29:03;101477.59;;;8.85;68.73
33506;BME280;19843;51.040;13.782;2023-05-03T04:31:31;101478.19;;;8.82;67.77
33506;BME280;19843;51.040;13.782;2023-05-03T04:34:00;101483.03;;;8.57;68.45
33506;BME280;19843;51.040;13.782;2023-05-03T04:36:27;101496.38;;;8.60;67.04
33506;BME280;19843;51.040;13.782;2023-05-03T04:38:55;101489.00;;;8.69;65.67
33506;BME280;19843;51.040;13.782;2023-05-03T04:41:23;101491.78;;;8.69;66.40
33506;BME280;19843;51.040;13.782;2023-05-03T04:43:50;101493.75;;;8.69;65.97
33506;BME280;19843;51.040;13.782;2023-05-03T04:46:18;101491.41;;;8.33;67.39
33506;BME280;19843;51.040;13.782;2023-05-03T04:48:45;101493.19;;;8.86;65.74
33506;BME280;19843;51.040;13.782;2023-05-03T04:51:14;101505.00;;;8.78;65.70
33506;BME280;19843;51.040;13.782;2023-05-03T04:53:42;101507.16;;;9.00;64.27
33506;BME280;19843;51.040;13.782;2023-05-03T04:56:09;101501.91;;;8.98;65.28
33506;BME280;19843;51.040;13.782;2023-05-03T04:58:37;101503.97;;;8.74;65.08
33506;BME280;19843;51.040;13.782;2023-05-03T05:01:04;101503.88;;;8.60;65.45
33506;BME280;19843;51.040;13.782;2023-05-03T05:03:32;101505.22;;;9.00;64.37
33506;BME280;19843;51.040;13.782;2023-05-03T05:06:00;101505.00;;;9.29;64.81
33506;BME280;19843;51.040;13.782;2023-05-03T05:08:29;101512.22;;;9.30;63.68
33506;BME280;19843;51.040;13.782;2023-05-03T05:10:56;101518.59;;;9.63;62.64
33506;BME280;19843;51.040;13.782;2023-05-03T05:13:24;101514.09;;;9.35;63.00
33506;BME280;19843;51.040;13.782;2023-05-03T05:15:51;101520.38;;;9.27;64.35
33506;BME280;19843;51.040;13.782;2023-05-03T05:18:18;101515.00;;;9.30;61.42
33506;BME280;19843;51.040;13.782;2023-05-03T05:20:46;101519.66;;;9.35;62.04
33506;BME280;19843;51.040;13.782;2023-05-03T05:23:14;101520.63;;;8.92;60.76
33506;BME280;19843;51.040;13.782;2023-05-03T05:25:42;101529.97;;;9.67;60.39
33506;BME280;19843;51.040;13.782;2023-05-03T05:28:10;101529.84;;;9.72;59.67
33506;BME280;19843;51.040;13.782;2023-05-03T05:30:37;101537.94;;;10.15;58.40
33506;BME280;19843;51.040;13.782;2023-05-03T05:33:05;101540.69;;;9.60;57.67
33506;BME280;19843;51.040;13.782;2023-05-03T05:35:32;101541.03;;;9.39;58.39
33506;BME280;19843;51.040;13.782;2023-05-03T05:38:00;101533.56;;;9.67;58.04
33506;BME280;19843;51.040;13.782;2023-05-03T05:40:28;101538.66;;;8.81;59.55
33506;BME280;19843;51.040;13.782;2023-05-03T05:42:56;101543.44;;;9.46;59.22
33506;BME280;19843;51.040;13.782;2023-05-03T05:45:24;101548.44;;;9.30;59.15
33506;BME280;19843;51.040;13.782;2023-05-03T05:47:51;101550.91;;;9.51;58.58
33506;BME280;19843;51.040;13.782;2023-05-03T05:50:19;101550.72;;;9.28;57.68
33506;BME280;19843;51.040;13.782;2023-05-03T05:52:47;101553.16;;;8.78;59.78
33506;BME280;19843;51.040;13.782;2023-05-03T05:55:15;101544.63;;;9.26;58.42
33506;BME280;19843;51.040;13.782;2023-05-03T05:57:42;101546.06;;;9.56;58.46
33506;BME280;19843;51.040;13.782;2023-05-03T06:00:12;101556.63;;;9.87;56.85
33506;BME280;19843;51.040;13.782;2023-05-03T06:02:40;101542.91;;;9.90;56.08
33506;BME280;19843;51.040;13.782;2023-05-03T06:05:08;101555.81;;;10.00;55.44
33506;BME280;19843;51.040;13.782;2023-05-03T06:07:36;101551.41;;;9.53;56.69
33506;BME280;19843;51.040;13.782;2023-05-03T06:10:05;101561.31;;;10.05;56.19
33506;BME280;19843;51.040;13.782;2023-05-03T06:12:33;101546.31;;;10.56;55.24
33506;BME280;19843;51.040;13.782;2023-05-03T06:15:01;101557.03;;;10.63;54.98
33506;BME280;19843;51.040;13.782;2023-05-03T06:17:30;101559.44;;;10.14;56.09
33506;BME280;19843;51.040;13.782;2023-05-03T06:19:58;101561.38;;;9.40;56.98
33506;BME280;19843;51.040;13.782;2023-05-03T06:22:25;101556.47;;;9.51;57.25
33506;BME280;19843;51.040;13.782;2023-05-03T06:24:53;101561.91;;;9.88;57.03
33506;BME280;19843;51.040;13.782;2023-05-03T06:27:21;101560.25;;;10.01;55.66
33506;BME280;19843;51.040;13.782;2023-05-03T06:29:49;101561.44;;;10.28;55.83
33506;BME280;19843;51.040;13.782;2023-05-03T06:32:17;101554.91;;;10.96;54.96
33506;BME280;19843;51.040;13.782;2023-05-03T06:34:48;101561.13;;;10.93;56.22
33506;BME280;19843;51.040;13.782;2023-05-03T06:37:16;101553.34;;;10.12;55.66
33506;BME280;19843;51.040;13.782;2023-05-03T06:39:43;101552.19;;;10.68;53.97
33506;BME280;19843;51.040;13.782;2023-05-03T06:42:11;101555.84;;;10.41;54.56
33506;BME280;19843;51.040;13.782;2023-05-03T06:44:38;101553.69;;;10.88;52.83
33506;BME280;19843;51.040;13.782;2023-05-03T06:47:06;101565.97;;;10.23;55.69
33506;BME280;19843;51.040;13.782;2023-05-03T06:49:34;101558.31;;;10.57;55.11
33506;BME280;19843;51.040;13.782;2023-05-03T06:52:03;101575.97;;;10.11;56.28
33506;BME280;19843;51.040;13.782;2023-05-03T06:54:30;101567.00;;;10.14;53.66
33506;BME280;19843;51.040;13.782;2023-05-03T06:56:58;101562.97;;;10.61;53.01
33506;BME280;19843;51.040;13.782;2023-05-03T06:59:27;101559.53;;;10.78;53.83
33506;BME280;19843;51.040;13.782;2023-05-03T07:01:54;101562.22;;;10.69;54.19
33506;BME280;19843;51.040;13.782;2023-05-03T07:04:21;101562.25;;;10.56;54.00
33506;BME280;19843;51.040;13.782;2023-05-03T07:06:49;101558.34;;;10.93;54.22
33506;BME280;19843;51.040;13.782;2023-05-03T07:09:23;101561.09;;;10.57;52.21
33506;BME280;19843;51.040;13.782;2023-05-03T07:12:07;101567.63;;;11.47;51.79
33506;BME280;19843;51.040;13.782;2023-05-03T07:14:35;101560.38;;;11.23;52.11
33506;BME280;19843;51.040;13.782;2023-05-03T07:17:02;101567.41;;;10.07;52.85
33506;BME280;19843;51.040;13.782;2023-05-03T07:19:30;101552.84;;;10.38;53.62
33506;BME280;19843;51.040;13.782;2023-05-03T07:21:57;101554.69;;;10.56;53.56
33506;BME280;19843;51.040;13.782;2023-05-03T07:24:26;101553.00;;;10.83;52.90
33506;BME280;19843;51.040;13.782;2023-05-03T07:26:54;101552.09;;;10.96;51.96
33506;BME280;19843;51.040;13.782;2023-05-03T07:29:21;101546.00;;;10.94;52.29
33506;BME280;19843;51.040;13.782;2023-05-03T07:31:49;101545.31;;;11.33;51.11
33506;BME280;19843;51.040;13.782;2023-05-03T07:34:19;101547.47;;;10.91;51.53
33506;BME280;19843;51.040;13.782;2023-05-03T07:36:46;101546.41;;;11.23;51.60
33506;BME280;19843;51.040;13.782;2023-05-03T07:39:14;101542.78;;;11.45;52.01
33506;BME280;19843;51.040;13.782;2023-05-03T07:41:44;101541.94;;;11.98;48.80
33506;BME280;19843;51.040;13.782;2023-05-03T07:44:12;101544.53;;;10.96;49.62
33506;BME280;19843;51.040;13.782;2023-05-03T07:46:39;101541.41;;;11.88;47.72
33506;BME280;19843;51.040;13.782;2023-05-03T07:49:07;101539.34;;;12.68;46.86
33506;BME280;19843;51.040;13.782;2023-05-03T07:51:34;101538.34;;;12.64;46.83
33506;BME280;19843;51.040;13.782;2023-05-03T07:54:02;101544.59;;;12.52;47.21
33506;BME280;19843;51.040;13.782;2023-05-03T07:56:30;101529.78;;;12.86;46.06
33506;BME280;19843;51.040;13.782;2023-05-03T07:58:59;101540.03;;;12.73;44.80
33506;BME280;19843;51.040;13.782;2023-05-03T08:01:29;101526.34;;;13.06;45.69
33506;BME280;19843;51.040;13.782;2023-05-03T08:03:57;101535.97;;;11.83;47.03
33506;BME280;19843;51.040;13.782;2023-05-03T08:06:25;101534.19;;;12.52;45.90
33506;BME280;19843;51.040;13.782;2023-05-03T08:08:53;101535.22;;;12.74;45.57
33506;BME280;19843;51.040;13.782;2023-05-03T08:11:21;101541.34;;;13.45;46.03
33506;BME280;19843;51.040;13.782;2023-05-03T08:13:48;101528.59;;;13.56;43.09
33506;BME280;19843;51.040;13.782;2023-05-03T08:16:17;101530.13;;;13.28;44.98
33506;BME280;19843;51.040;13.782;2023-05-03T08:18:45;101539.63;;;12.00;47.63
33506;BME280;19843;51.040;13.782;2023-05-03T08:21:14;101539.69;;;12.09;45.97
33506;BME280;19843;51.040;13.782;2023-05-03T08:23:42;101532.75;;;13.50;46.88
33506;BME280;19843;51.040;13.782;2023-05-03T08:26:10;101531.06;;;12.45;45.51
33506;BME280;19843;51.040;13.782;2023-05-03T08:28:39;101530.56;;;11.95;46.34
33506;BME280;19843;51.040;13.782;2023-05-03T08:31:07;101524.94;;;12.26;46.62
33506;BME280;19843;51.040;13.782;2023-05-03T08:33:36;101528.97;;;13.38;45.62
33506;BME280;19843;51.040;13.782;2023-05-03T08:36:04;101525.66;;;13.18;44.45
33506;BME280;19843;51.040;13.782;2023-05-03T08:38:33;101529.09;;;13.58;44.13
33506;BME280;19843;51.040;13.782;2023-05-03T08:41:12;101527.16;;;13.33;44.26
33506;BME280;19843;51.040;13.782;2023-05-03T08:43:43;101533.41;;;14.32;43.24
33506;BME280;19843;51.040;13.782;2023-05-03T08:46:10;101518.06;;;14.30;44.05
33506;BME280;19843;51.040;13.782;2023-05-03T08:48:40;101519.38;;;15.25;41.29
33506;BME280;19843;51.040;13.782;2023-05-03T08:51:08;101518.31;;;14.16;42.75
33506;BME280;19843;51.040;13.782;2023-05-03T08:53:36;101519.59;;;15.20;41.52
33506;BME280;19843;51.040;13.782;2023-05-03T08:56:07;101523.66;;;14.00;42.63
33506;BME280;19843;51.040;13.782;2023-05-03T08:58:35;101535.34;;;14.11;42.12
33506;BME280;19843;51.040;13.782;2023-05-03T09:01:03;101522.69;;;12.71;43.89
33506;BME280;19843;51.040;13.782;2023-05-03T09:03:32;101536.72;;;12.89;45.10
33506;BME280;19843;51.040;13.782;2023-05-03T09:06:01;101518.03;;;14.00;44.05
33506;BME280;19843;51.040;13.782;2023-05-03T09:08:29;101525.28;;;14.10;46.12
33506;BME280;19843;51.040;13.782;2023-05-03T09:10:57;101527.66;;;13.35;44.38
33506;BME280;19843;51.040;13.782;2023-05-03T09:13:29;101526.81;;;12.74;45.64
33506;BME280;19843;51.040;13.782;2023-05-03T09:15:57;101528.44;;;13.53;44.73
33506;BME280;19843;51.040;13.782;2023-05-03T09:18:24;101525.19;;;13.07;46.79
33506;BME280;19843;51.040;13.782;2023-05-03T09:20:52;101519.41;;;13.21;45.34
33506;BME280;19843;51.040;13.782;2023-05-03T09:23:29;101529.47;;;13.14;45.15
33506;BME280;19843;51.040;13.782;2023-05-03T09:25:58;101534.94;;;13.27;43.59
33506;BME280;19843;51.040;13.782;2023-05-03T09:28:26;101533.91;;;13.41;44.08
33506;BME280;19843;51.040;13.782;2023-05-03T09:31:03;101517.41;;;14.63;42.75
33506;BME280;19843;51.040;13.782;2023-05-03T09:33:32;101517.41;;;15.37;42.00
33506;BME280;19843;51.040;13.782;2023-05-03T09:36:01;101521.44;;;15.16;42.53
33506;BME280;19843;51.040;13.782;2023-05-03T09:38:31;101528.22;;;14.14;42.10
33506;BME280;19843;51.040;13.782;2023-05-03T09:41:00;101524.75;;;14.17;41.58
33506;BME280;19843;51.040;13.782;2023-05-03T09:43:27;101522.75;;;14.97;43.52
33506;BME280;19843;51.040;13.782;2023-05-03T09:46:07;101511.31;;;15.69;43.52
33506;BME280;19843;51.040;13.782;2023-05-03T09:48:35;101510.19;;;16.19;38.52
33506;BME280;19843;51.040;13.782;2023-05-03T09:51:03;101519.63;;;13.72;41.35
33506;BME280;19843;51.040;13.782;2023-05-03T09:53:34;101498.59;;;15.17;42.14
33506;BME280;19843;51.040;13.782;2023-05-03T09:56:03;101511.69;;;15.13;43.23
33506;BME280;19843;51.040;13.782;2023-05-03T09:58:32;101521.16;;;14.07;42.04
33506;BME280;19843;51.040;13.782;2023-05-03T10:01:00;101514.69;;;14.45;41.18
33506;BME280;19843;51.040;13.782;2023-05-03T10:03:33;101501.25;;;15.47;40.84
33506;BME280;19843;51.040;13.782;2023-05-03T10:06:02;101506.72;;;14.77;41.51
33506;BME280;19843;51.040;13.782;2023-05-03T10:08:39;101510.41;;;15.77;39.29
33506;BME280;19843;51.040;13.782;2023-05-03T10:11:08;101500.38;;;15.22;40.64
33506;BME280;19843;51.040;13.782;2023-05-03T10:13:37;101485.75;;;14.53;42.28
33506;BME280;19843;51.040;13.782;2023-05-03T10:16:07;101500.66;;;15.08;41.92
33506;BME280;19843;51.040;13.782;2023-05-03T10:18:43;101499.72;;;14.32;40.85
33506;BME280;19843;51.040;13.782;2023-05-03T10:21:15;101490.69;;;14.77;41.33
33506;BME280;19843;51.040;13.782;2023-05-03T10:24:10;101485.25;;;15.26;39.81
33506;BME280;19843;51.040;13.782;2023-05-03T10:26:41;101475.16;;;16.56;39.21
33506;BME280;19843;51.040;13.782;2023-05-03T10:29:43;101473.41;;;17.04;38.99
33506;BME280;19843;51.040;13.782;2023-05-03T10:32:33;101495.69;;;14.72;40.68
33506;BME280;19843;51.040;13.782;2023-05-03T10:35:06;101478.94;;;16.36;40.44
33506;BME280;19843;51.040;13.782;2023-05-03T10:37:34;101478.28;;;16.02;40.08
33506;BME280;19843;51.040;13.782;2023-05-03T10:40:09;101473.09;;;15.68;39.58
33506;BME280;19843;51.040;13.782;2023-05-03T10:42:38;101482.09;;;15.28;41.12
33506;BME280;19843;51.040;13.782;2023-05-03T10:45:07;101481.34;;;15.19;41.84
33506;BME280;19843;51.040;13.782;2023-05-03T10:47:35;101474.53;;;15.41;40.95
33506;BME280;19843;51.040;13.782;2023-05-03T10:50:26;101480.84;;;15.83;40.14
33506;BME280;19843;51.040;13.782;2023-05-03T10:52:54;101470.31;;;15.14;44.08
33506;BME280;19843;51.040;13.782;2023-05-03T10:55:23;101475.78;;;14.26;41.03
33506;BME280;19843;51.040;13.782;2023-05-03T10:57:54;101472.44;;;14.83;42.77
33506;BME280;19843;51.040;13.782;2023-05-03T11:00:29;101469.94;;;16.06;39.77
33506;BME280;19843;51.040;13.782;2023-05-03T11:03:07;101465.03;;;15.91;40.74
33506;BME280;19843;51.040;13.782;2023-05-03T11:05:37;101471.19;;;14.51;42.37
33506;BME280;19843;51.040;13.782;2023-05-03T11:08:13;101457.81;;;14.19;40.43
33506;BME280;19843;51.040;13.782;2023-05-03T11:10:44;101466.59;;;15.22;39.70
33506;BME280;19843;51.040;13.782;2023-05-03T11:13:12;101467.94;;;15.03;42.98
33506;BME280;19843;51.040;13.782;2023-05-03T11:15:40;101460.91;;;14.55;39.60
33506;BME280;19843;51.040;13.782;2023-05-03T11:18:09;101473.97;;;14.30;39.47
33506;BME280;19843;51.040;13.782;2023-05-03T11:20:37;101472.88;;;15.40;41.00
33506;BME280;19843;51.040;13.782;2023-05-03T11:23:05;101464.25;;;15.24;38.87
33506;BME280;19843;51.040;13.782;2023-05-03T11:25:33;101467.22;;;14.23;39.47
33506;BME280;19843;51.040;13.782;2023-05-03T11:28:02;101453.59;;;15.17;40.95
33506;BME280;19843;51.040;13.782;2023-05-03T11:30:32;101457.94;;;15.15;41.89
33506;BME280;19843;51.040;13.782;2023-05-03T11:33:00;101450.50;;;15.43;41.89
33506;BME280;19843;51.040;13.782;2023-05-03T11:35:28;101458.59;;;14.57;41.02
33506;BME280;19843;51.040;13.782;2023-05-03T11:37:57;101447.50;;;16.22;39.14
33506;BME280;19843;51.040;13.782;2023-05-03T11:40:25;101444.13;;;15.67;42.30
33506;BME280;19843;51.040;13.782;2023-05-03T11:42:53;101450.84;;;15.08;41.28
33506;BME280;19843;51.040;13.782;2023-05-03T11:45:24;101461.84;;;15.01;39.91
33506;BME280;19843;51.040;13.782;2023-05-03T11:47:52;101453.09;;;14.82;39.66
33506;BME280;19843;51.040;13.782;2023-05-03T11:50:26;101442.16;;;14.68;39.53
33506;BME280;19843;51.040;13.782;2023-05-03T11:52:54;101455.94;;;14.94;41.16
33506;BME280;19843;51.040;13.782;2023-05-03T11:55:22;101451.97;;;14.32;40.40
33506;BME280;19843;51.040;13.782;2023-05-03T11:57:49;101457.38;;;15.67;38.81
33506;BME280;19843;51.040;13.782;2023-05-03T12:00:18;101449.25;;;14.66;39.01
33506;BME280;19843;51.040;13.782;2023-05-03T12:02:49;101458.78;;;14.23;40.86
33506;BME280;19843;51.040;13.782;2023-05-03T12:05:17;101455.59;;;14.63;38.95
33506;BME280;19843;51.040;13.782;2023-05-03T12:07:46;101463.25;;;14.53;39.76
33506;BME280;19843;51.040;13.782;2023-05-03T12:10:16;101463.47;;;15.69;39.11
33506;BME280;19843;51.040;13.782;2023-05-03T12:12:54;101456.81;;;15.40;37.46
33506;BME280;19843;51.040;13.782;2023-05-03T12:15:29;101450.22;;;15.94;36.81
33506;BME280;19843;51.040;13.782;2023-05-03T12:18:02;101429.09;;;16.77;37.44
33506;BME280;19843;51.040;13.782;2023-05-03T12:20:34;101440.50;;;15.67;39.59
33506;BME280;19843;51.040;13.782;2023-05-03T12:23:07;101438.50;;;15.67;40.07
33506;BME280;19843;51.040;13.782;2023-05-03T12:25:36;101434.47;;;16.70;38.22
33506;BME280;19843;51.040;13.782;2023-05-03T12:28:09;101444.03;;;16.00;39.18
33506;BME280;19843;51.040;13.782;2023-05-03T12:30:39;101429.81;;;15.27;37.41
33506;BME280;19843;51.040;13.782;2023-05-03T12:33:12;101434.03;;;14.88;40.31
33506;BME280;19843;51.040;13.782;2023-05-03T12:35:42;101437.50;;;15.05;39.82
33506;BME280;19843;51.040;13.782;2023-05-03T12:38:13;101423.44;;;16.00;40.44
33506;BME280;19843;51.040;13.782;2023-05-03T12:40:43;101426.88;;;15.23;39.35
33506;BME280;19843;51.040;13.782;2023-05-03T12:43:12;101431.69;;;15.93;39.56
33506;BME280;19843;51.040;13.782;2023-05-03T12:45:39;101424.88;;;15.24;38.73
33506;BME280;19843;51.040;13.782;2023-05-03T12:48:13;101417.97;;;15.21;38.81
33506;BME280;19843;51.040;13.782;2023-05-03T12:50:41;101424.34;;;14.97;38.70
33506;BME280;19843;51.040;13.782;2023-05-03T12:53:11;101421.66;;;14.68;38.04